Navajo Mountain, Utah
Current Conditions -  °F | °C
As of 6:53 AM on Thursday 30 Oct 2014 (Local Time) from KPGA Reporting Station
Clear Clear  
Wind Chill: 46°   Ceiling: Unl
Heat Index: 46°   Visibility: 10mi
Dew Point: 22°   Wind: 0mph
Humidity: 39%   Direction: NA
Pressure: 30.26"   Gusts: NA
Location:  37.02°N, 110.79°W
Report Text: KPGA 301253Z AUTO 00000KT 10SM CLR 08/M06 A3026 RMK AO2 SLP219 T00781056
Loading
Personal Weather Stations






























Interactive Weather Map
Tropical Storm Tracking
New forecast layout! Learn more

10-Day Weather Forecast

Advertisements
Track Severe Weather on mobile